sensor_id;sensor_type;location;lat;lon;timestamp;temperature;humidity
10802;DHT22;5453;50.852;7.102;2023-08-31T00:01:28;15.00;99.90
10802;DHT22;5453;50.852;7.102;2023-08-31T00:04:00;15.00;99.90
10802;DHT22;5453;50.852;7.102;2023-08-31T00:06:33;15.00;99.90
10802;DHT22;5453;50.852;7.102;2023-08-31T00:09:05;15.00;99.90
10802;DHT22;5453;50.852;7.102;2023-08-31T00:11:40;15.00;99.90
10802;DHT22;5453;50.852;7.102;2023-08-31T00:14:12;15.00;99.90
10802;DHT22;5453;50.852;7.102;2023-08-31T00:16:46;15.00;99.90
10802;DHT22;5453;50.852;7.102;2023-08-31T00:19:18;15.00;99.90
10802;DHT22;5453;50.852;7.102;2023-08-31T00:21:51;15.00;99.90
10802;DHT22;5453;50.852;7.102;2023-08-31T00:24:23;15.00;99.90
10802;DHT22;5453;50.852;7.102;2023-08-31T00:27:00;15.00;99.90
10802;DHT22;5453;50.852;7.102;2023-08-31T00:29:34;15.00;99.90
10802;DHT22;5453;50.852;7.102;2023-08-31T00:32:12;15.00;99.90
10802;DHT22;5453;50.852;7.102;2023-08-31T00:34:44;15.00;99.90
10802;DHT22;5453;50.852;7.102;2023-08-31T00:37:17;15.10;99.90
10802;DHT22;5453;50.852;7.102;2023-08-31T00:39:52;15.10;99.90
10802;DHT22;5453;50.852;7.102;2023-08-31T00:42:25;15.00;99.90
10802;DHT22;5453;50.852;7.102;2023-08-31T00:45:00;15.10;99.90
10802;DHT22;5453;50.852;7.102;2023-08-31T00:47:34;15.10;99.90
10802;DHT22;5453;50.852;7.102;2023-08-31T00:50:07;15.10;99.90
10802;DHT22;5453;50.852;7.102;2023-08-31T00:52:41;15.10;99.90
10802;DHT22;5453;50.852;7.102;2023-08-31T00:55:15;15.10;99.90
10802;DHT22;5453;50.852;7.102;2023-08-31T00:57:48;15.10;99.90
10802;DHT22;5453;50.852;7.102;2023-08-31T01:00:22;15.10;99.90
10802;DHT22;5453;50.852;7.102;2023-08-31T01:03:05;15.10;99.90
10802;DHT22;5453;50.852;7.102;2023-08-31T01:05:50;15.10;99.90
10802;DHT22;5453;50.852;7.102;2023-08-31T01:08:32;15.10;99.90
10802;DHT22;5453;50.852;7.102;2023-08-31T01:11:22;15.10;99.90
10802;DHT22;5453;50.852;7.102;2023-08-31T01:14:06;15.10;99.90
10802;DHT22;5453;50.852;7.102;2023-08-31T01:16:45;15.10;99.90
10802;DHT22;5453;50.852;7.102;2023-08-31T01:19:34;15.10;99.90
10802;DHT22;5453;50.852;7.102;2023-08-31T01:22:21;15.10;99.90
10802;DHT22;5453;50.852;7.102;2023-08-31T01:25:01;15.10;99.90
10802;DHT22;5453;50.852;7.102;2023-08-31T01:27:35;15.10;99.90
10802;DHT22;5453;50.852;7.102;2023-08-31T01:30:08;15.10;99.90
10802;DHT22;5453;50.852;7.102;2023-08-31T01:32:43;15.10;99.90
10802;DHT22;5453;50.852;7.102;2023-08-31T01:35:17;15.10;99.90
10802;DHT22;5453;50.852;7.102;2023-08-31T01:37:55;15.10;99.90
10802;DHT22;5453;50.852;7.102;2023-08-31T01:40:37;15.10;99.90
10802;DHT22;5453;50.852;7.102;2023-08-31T01:43:12;15.10;99.90
10802;DHT22;5453;50.852;7.102;2023-08-31T01:45:47;15.10;99.90
10802;DHT22;5453;50.852;7.102;2023-08-31T01:48:20;15.10;99.90
10802;DHT22;5453;50.852;7.102;2023-08-31T01:50:52;15.10;99.90
10802;DHT22;5453;50.852;7.102;2023-08-31T01:53:24;15.10;99.90
10802;DHT22;5453;50.852;7.102;2023-08-31T01:55:58;15.00;99.90
10802;DHT22;5453;50.852;7.102;2023-08-31T01:58:31;15.00;99.90
10802;DHT22;5453;50.852;7.102;2023-08-31T02:01:03;15.00;99.90
10802;DHT22;5453;50.852;7.102;2023-08-31T02:03:35;15.00;99.90
10802;DHT22;5453;50.852;7.102;2023-08-31T02:06:08;14.90;99.90
10802;DHT22;5453;50.852;7.102;2023-08-31T02:08:40;14.80;99.90
10802;DHT22;5453;50.852;7.102;2023-08-31T02:11:16;14.80;99.90
10802;DHT22;5453;50.852;7.102;2023-08-31T02:13:48;14.80;99.90
10802;DHT22;5453;50.852;7.102;2023-08-31T02:16:21;14.70;99.90
10802;DHT22;5453;50.852;7.102;2023-08-31T02:18:53;14.60;99.90
10802;DHT22;5453;50.852;7.102;2023-08-31T02:21:27;14.60;99.90
10802;DHT22;5453;50.852;7.102;2023-08-31T02:23:59;14.60;99.90
10802;DHT22;5453;50.852;7.102;2023-08-31T02:26:34;14.50;99.90
10802;DHT22;5453;50.852;7.102;2023-08-31T02:29:07;14.50;99.90
10802;DHT22;5453;50.852;7.102;2023-08-31T02:31:40;14.50;99.90
10802;DHT22;5453;50.852;7.102;2023-08-31T02:34:13;14.50;99.90
10802;DHT22;5453;50.852;7.102;2023-08-31T02:36:46;14.40;99.90
10802;DHT22;5453;50.852;7.102;2023-08-31T02:39:18;14.40;99.90
10802;DHT22;5453;50.852;7.102;2023-08-31T02:41:53;14.30;99.90
10802;DHT22;5453;50.852;7.102;2023-08-31T02:44:25;14.30;99.90
10802;DHT22;5453;50.852;7.102;2023-08-31T02:46:58;14.20;99.90
10802;DHT22;5453;50.852;7.102;2023-08-31T02:49:31;14.20;99.90
10802;DHT22;5453;50.852;7.102;2023-08-31T02:52:04;14.10;99.90
10802;DHT22;5453;50.852;7.102;2023-08-31T02:54:36;14.10;99.90
10802;DHT22;5453;50.852;7.102;2023-08-31T02:57:10;14.10;99.90
10802;DHT22;5453;50.852;7.102;2023-08-31T02:59:42;14.10;99.90
10802;DHT22;5453;50.852;7.102;2023-08-31T03:02:15;14.10;99.90
10802;DHT22;5453;50.852;7.102;2023-08-31T03:04:47;14.00;99.90
10802;DHT22;5453;50.852;7.102;2023-08-31T03:07:20;14.10;99.90
10802;DHT22;5453;50.852;7.102;2023-08-31T03:09:52;14.10;99.90
10802;DHT22;5453;50.852;7.102;2023-08-31T03:12:27;14.10;99.90
10802;DHT22;5453;50.852;7.102;2023-08-31T03:15:00;14.10;99.90
10802;DHT22;5453;50.852;7.102;2023-08-31T03:17:32;14.10;99.90
10802;DHT22;5453;50.852;7.102;2023-08-31T03:20:06;14.10;99.90
10802;DHT22;5453;50.852;7.102;2023-08-31T03:22:39;14.20;99.90
10802;DHT22;5453;50.852;7.102;2023-08-31T03:25:12;14.10;99.90
10802;DHT22;5453;50.852;7.102;2023-08-31T03:27:46;14.20;99.90
10802;DHT22;5453;50.852;7.102;2023-08-31T03:30:21;14.20;99.90
10802;DHT22;5453;50.852;7.102;2023-08-31T03:32:54;14.20;99.90
10802;DHT22;5453;50.852;7.102;2023-08-31T03:35:26;14.20;99.90
10802;DHT22;5453;50.852;7.102;2023-08-31T03:38:02;14.20;99.90
10802;DHT22;5453;50.852;7.102;2023-08-31T03:40:35;14.30;99.90
10802;DHT22;5453;50.852;7.102;2023-08-31T03:43:09;14.30;99.90
10802;DHT22;5453;50.852;7.102;2023-08-31T03:45:41;14.40;99.90
10802;DHT22;5453;50.852;7.102;2023-08-31T03:48:14;14.40;99.90
10802;DHT22;5453;50.852;7.102;2023-08-31T03:50:49;14.40;99.90
10802;DHT22;5453;50.852;7.102;2023-08-31T03:53:22;14.40;99.90
10802;DHT22;5453;50.852;7.102;2023-08-31T03:55:58;14.40;99.90
10802;DHT22;5453;50.852;7.102;2023-08-31T03:58:31;14.50;99.90
10802;DHT22;5453;50.852;7.102;2023-08-31T04:01:04;14.50;99.90
10802;DHT22;5453;50.852;7.102;2023-08-31T04:03:37;14.50;99.90
10802;DHT22;5453;50.852;7.102;2023-08-31T04:06:09;14.60;99.90
10802;DHT22;5453;50.852;7.102;2023-08-31T04:08:45;14.60;99.90
10802;DHT22;5453;50.852;7.102;2023-08-31T04:11:17;14.60;99.90
10802;DHT22;5453;50.852;7.102;2023-08-31T04:13:51;14.60;99.90
10802;DHT22;5453;50.852;7.102;2023-08-31T04:16:27;14.60;99.90
10802;DHT22;5453;50.852;7.102;2023-08-31T04:18:59;14.60;99.90
10802;DHT22;5453;50.852;7.102;2023-08-31T04:21:32;14.60;99.90
10802;DHT22;5453;50.852;7.102;2023-08-31T04:24:05;14.60;99.90
10802;DHT22;5453;50.852;7.102;2023-08-31T04:26:37;14.70;99.90
10802;DHT22;5453;50.852;7.102;2023-08-31T04:29:11;14.70;99.90
10802;DHT22;5453;50.852;7.102;2023-08-31T04:31:43;14.70;99.90
10802;DHT22;5453;50.852;7.102;2023-08-31T04:34:16;14.70;99.90
10802;DHT22;5453;50.852;7.102;2023-08-31T04:36:48;14.70;99.90
10802;DHT22;5453;50.852;7.102;2023-08-31T04:39:20;14.70;99.90
10802;DHT22;5453;50.852;7.102;2023-08-31T04:41:53;14.70;99.90
10802;DHT22;5453;50.852;7.102;2023-08-31T04:44:30;14.70;99.90
10802;DHT22;5453;50.852;7.102;2023-08-31T04:47:02;14.70;99.90
10802;DHT22;5453;50.852;7.102;2023-08-31T04:49:35;14.70;99.90
10802;DHT22;5453;50.852;7.102;2023-08-31T04:52:07;14.70;99.90
10802;DHT22;5453;50.852;7.102;2023-08-31T04:54:40;14.80;99.90
10802;DHT22;5453;50.852;7.102;2023-08-31T04:57:12;14.70;99.90
10802;DHT22;5453;50.852;7.102;2023-08-31T04:59:46;14.70;99.90
10802;DHT22;5453;50.852;7.102;2023-08-31T05:02:19;14.70;99.90
10802;DHT22;5453;50.852;7.102;2023-08-31T05:04:51;14.70;99.90
10802;DHT22;5453;50.852;7.102;2023-08-31T05:07:23;14.70;99.90
10802;DHT22;5453;50.852;7.102;2023-08-31T05:09:56;14.70;99.90
10802;DHT22;5453;50.852;7.102;2023-08-31T05:12:31;14.70;99.90
10802;DHT22;5453;50.852;7.102;2023-08-31T05:15:06;14.70;99.90
10802;DHT22;5453;50.852;7.102;2023-08-31T05:17:40;14.70;99.90
10802;DHT22;5453;50.852;7.102;2023-08-31T05:20:12;14.60;99.90
10802;DHT22;5453;50.852;7.102;2023-08-31T05:22:45;14.60;99.90
10802;DHT22;5453;50.852;7.102;2023-08-31T05:25:17;14.60;99.90
10802;DHT22;5453;50.852;7.102;2023-08-31T05:27:50;14.60;99.90
10802;DHT22;5453;50.852;7.102;2023-08-31T05:30:24;14.60;99.90
10802;DHT22;5453;50.852;7.102;2023-08-31T05:32:59;14.60;99.90
10802;DHT22;5453;50.852;7.102;2023-08-31T05:35:32;14.60;99.90
10802;DHT22;5453;50.852;7.102;2023-08-31T05:38:04;14.60;99.90
10802;DHT22;5453;50.852;7.102;2023-08-31T05:40:39;14.60;99.90
10802;DHT22;5453;50.852;7.102;2023-08-31T05:43:16;14.60;99.90
10802;DHT22;5453;50.852;7.102;2023-08-31T05:45:50;14.60;99.90
10802;DHT22;5453;50.852;7.102;2023-08-31T05:48:23;14.60;99.90
10802;DHT22;5453;50.852;7.102;2023-08-31T05:50:58;14.60;99.90
10802;DHT22;5453;50.852;7.102;2023-08-31T05:53:30;14.60;99.90
10802;DHT22;5453;50.852;7.102;2023-08-31T05:56:03;14.60;99.90
10802;DHT22;5453;50.852;7.102;2023-08-31T05:58:36;14.60;99.90
10802;DHT22;5453;50.852;7.102;2023-08-31T06:01:10;14.70;99.90
10802;DHT22;5453;50.852;7.102;2023-08-31T06:03:43;14.80;99.90
10802;DHT22;5453;50.852;7.102;2023-08-31T06:06:15;14.90;99.90
10802;DHT22;5453;50.852;7.102;2023-08-31T06:08:47;15.10;99.90
10802;DHT22;5453;50.852;7.102;2023-08-31T06:11:19;15.40;99.90
10802;DHT22;5453;50.852;7.102;2023-08-31T06:13:52;15.70;99.90
10802;DHT22;5453;50.852;7.102;2023-08-31T06:16:25;16.10;99.90
10802;DHT22;5453;50.852;7.102;2023-08-31T06:19:01;16.50;99.90
10802;DHT22;5453;50.852;7.102;2023-08-31T06:21:34;16.90;99.90
10802;DHT22;5453;50.852;7.102;2023-08-31T06:24:07;17.40;99.90
10802;DHT22;5453;50.852;7.102;2023-08-31T06:26:44;17.80;99.90
10802;DHT22;5453;50.852;7.102;2023-08-31T06:29:16;18.20;99.90
10802;DHT22;5453;50.852;7.102;2023-08-31T06:31:50;18.60;99.90
10802;DHT22;5453;50.852;7.102;2023-08-31T06:34:23;19.00;99.90
10802;DHT22;5453;50.852;7.102;2023-08-31T06:36:55;19.20;99.90
10802;DHT22;5453;50.852;7.102;2023-08-31T06:39:28;19.40;99.90
10802;DHT22;5453;50.852;7.102;2023-08-31T06:42:01;19.60;99.90
10802;DHT22;5453;50.852;7.102;2023-08-31T06:44:35;19.80;99.90
10802;DHT22;5453;50.852;7.102;2023-08-31T06:47:08;19.90;99.90
10802;DHT22;5453;50.852;7.102;2023-08-31T06:49:41;20.10;99.90
10802;DHT22;5453;50.852;7.102;2023-08-31T06:52:13;20.30;99.90
10802;DHT22;5453;50.852;7.102;2023-08-31T06:54:46;20.50;99.90
10802;DHT22;5453;50.852;7.102;2023-08-31T06:57:19;20.70;99.90
10802;DHT22;5453;50.852;7.102;2023-08-31T06:59:51;20.90;99.70
10802;DHT22;5453;50.852;7.102;2023-08-31T07:02:26;21.10;99.20
10802;DHT22;5453;50.852;7.102;2023-08-31T07:04:59;21.20;99.00
10802;DHT22;5453;50.852;7.102;2023-08-31T07:07:31;21.20;98.60
10802;DHT22;5453;50.852;7.102;2023-08-31T07:10:05;21.00;98.20
10802;DHT22;5453;50.852;7.102;2023-08-31T07:12:38;20.90;98.70
10802;DHT22;5453;50.852;7.102;2023-08-31T07:15:10;20.90;98.80
10802;DHT22;5453;50.852;7.102;2023-08-31T07:17:44;20.90;98.60
10802;DHT22;5453;50.852;7.102;2023-08-31T07:20:16;21.00;98.60
10802;DHT22;5453;50.852;7.102;2023-08-31T07:22:52;21.10;98.50
10802;DHT22;5453;50.852;7.102;2023-08-31T07:25:25;21.30;98.70
10802;DHT22;5453;50.852;7.102;2023-08-31T07:27:58;21.40;98.60
10802;DHT22;5453;50.852;7.102;2023-08-31T07:30:30;21.50;98.20
10802;DHT22;5453;50.852;7.102;2023-08-31T07:33:08;21.60;98.70
10802;DHT22;5453;50.852;7.102;2023-08-31T07:35:41;21.90;98.00
10802;DHT22;5453;50.852;7.102;2023-08-31T07:38:13;22.10;98.00
10802;DHT22;5453;50.852;7.102;2023-08-31T07:40:49;22.20;97.90
10802;DHT22;5453;50.852;7.102;2023-08-31T07:43:21;22.30;97.20
10802;DHT22;5453;50.852;7.102;2023-08-31T07:45:53;22.30;96.90
10802;DHT22;5453;50.852;7.102;2023-08-31T07:48:27;22.40;96.80
10802;DHT22;5453;50.852;7.102;2023-08-31T07:51:00;22.50;96.40
10802;DHT22;5453;50.852;7.102;2023-08-31T07:53:34;22.70;96.30
10802;DHT22;5453;50.852;7.102;2023-08-31T07:56:07;22.80;95.80
10802;DHT22;5453;50.852;7.102;2023-08-31T07:58:40;22.90;95.60
10802;DHT22;5453;50.852;7.102;2023-08-31T08:01:13;23.00;95.20
10802;DHT22;5453;50.852;7.102;2023-08-31T08:03:46;23.10;94.80
10802;DHT22;5453;50.852;7.102;2023-08-31T08:06:19;23.20;94.90
10802;DHT22;5453;50.852;7.102;2023-08-31T08:08:51;23.40;94.80
10802;DHT22;5453;50.852;7.102;2023-08-31T08:11:24;23.30;94.40
10802;DHT22;5453;50.852;7.102;2023-08-31T08:13:56;23.10;94.60
10802;DHT22;5453;50.852;7.102;2023-08-31T08:16:29;22.90;95.00
10802;DHT22;5453;50.852;7.102;2023-08-31T08:19:03;22.70;94.90
10802;DHT22;5453;50.852;7.102;2023-08-31T08:21:37;22.60;95.30
10802;DHT22;5453;50.852;7.102;2023-08-31T08:24:10;22.70;95.40
10802;DHT22;5453;50.852;7.102;2023-08-31T08:26:42;22.70;95.20
10802;DHT22;5453;50.852;7.102;2023-08-31T08:29:14;22.80;95.00
10802;DHT22;5453;50.852;7.102;2023-08-31T08:31:47;22.70;94.80
10802;DHT22;5453;50.852;7.102;2023-08-31T08:34:20;22.50;95.10
10802;DHT22;5453;50.852;7.102;2023-08-31T08:36:56;22.40;95.40
10802;DHT22;5453;50.852;7.102;2023-08-31T08:39:28;22.30;95.30
10802;DHT22;5453;50.852;7.102;2023-08-31T08:42:04;22.20;95.50
10802;DHT22;5453;50.852;7.102;2023-08-31T08:44:37;22.70;95.80
10802;DHT22;5453;50.852;7.102;2023-08-31T08:47:13;23.60;94.80
10802;DHT22;5453;50.852;7.102;2023-08-31T08:49:48;24.70;93.50
10802;DHT22;5453;50.852;7.102;2023-08-31T08:52:20;25.70;91.80
10802;DHT22;5453;50.852;7.102;2023-08-31T08:54:54;26.60;89.80
10802;DHT22;5453;50.852;7.102;2023-08-31T08:57:27;27.20;85.70
10802;DHT22;5453;50.852;7.102;2023-08-31T09:00:00;27.70;81.80
10802;DHT22;5453;50.852;7.102;2023-08-31T09:02:33;27.90;79.80
10802;DHT22;5453;50.852;7.102;2023-08-31T09:05:08;28.00;78.30
10802;DHT22;5453;50.852;7.102;2023-08-31T09:08:00;28.00;77.40
10802;DHT22;5453;50.852;7.102;2023-08-31T09:10:34;27.60;76.30
10802;DHT22;5453;50.852;7.102;2023-08-31T09:13:08;27.10;76.50
10802;DHT22;5453;50.852;7.102;2023-08-31T09:15:45;26.40;77.50
10802;DHT22;5453;50.852;7.102;2023-08-31T09:18:23;25.60;77.80
10802;DHT22;5453;50.852;7.102;2023-08-31T09:20:57;24.90;79.20
10802;DHT22;5453;50.852;7.102;2023-08-31T09:23:30;24.50;80.80
10802;DHT22;5453;50.852;7.102;2023-08-31T09:26:04;24.20;81.50
10802;DHT22;5453;50.852;7.102;2023-08-31T09:28:40;23.80;81.80
10802;DHT22;5453;50.852;7.102;2023-08-31T09:31:16;23.50;83.10
10802;DHT22;5453;50.852;7.102;2023-08-31T09:33:51;23.20;85.10
10802;DHT22;5453;50.852;7.102;2023-08-31T09:36:26;23.00;86.10
10802;DHT22;5453;50.852;7.102;2023-08-31T09:38:59;22.90;86.60
10802;DHT22;5453;50.852;7.102;2023-08-31T09:41:31;22.70;86.40
10802;DHT22;5453;50.852;7.102;2023-08-31T09:44:17;22.60;86.50
10802;DHT22;5453;50.852;7.102;2023-08-31T09:46:50;22.50;87.30
10802;DHT22;5453;50.852;7.102;2023-08-31T09:49:25;22.50;88.40
10802;DHT22;5453;50.852;7.102;2023-08-31T09:52:03;22.40;89.00
10802;DHT22;5453;50.852;7.102;2023-08-31T09:54:36;22.40;89.50
10802;DHT22;5453;50.852;7.102;2023-08-31T09:57:13;22.50;89.60
10802;DHT22;5453;50.852;7.102;2023-08-31T09:59:47;22.50;89.50
10802;DHT22;5453;50.852;7.102;2023-08-31T10:02:20;22.40;89.60
10802;DHT22;5453;50.852;7.102;2023-08-31T10:04:52;22.40;89.60
10802;DHT22;5453;50.852;7.102;2023-08-31T10:07:30;22.30;89.60
10802;DHT22;5453;50.852;7.102;2023-08-31T10:10:03;22.00;89.40
10802;DHT22;5453;50.852;7.102;2023-08-31T10:12:36;22.00;90.20
10802;DHT22;5453;50.852;7.102;2023-08-31T10:15:10;22.10;90.30
10802;DHT22;5453;50.852;7.102;2023-08-31T10:17:44;22.20;90.20
10802;DHT22;5453;50.852;7.102;2023-08-31T10:20:17;22.30;90.20
10802;DHT22;5453;50.852;7.102;2023-08-31T10:22:51;22.30;90.20
10802;DHT22;5453;50.852;7.102;2023-08-31T10:25:24;22.20;90.30
10802;DHT22;5453;50.852;7.102;2023-08-31T10:27:57;22.00;90.10
10802;DHT22;5453;50.852;7.102;2023-08-31T10:30:30;21.80;90.40
10802;DHT22;5453;50.852;7.102;2023-08-31T10:33:20;21.60;90.50
10802;DHT22;5453;50.852;7.102;2023-08-31T10:35:55;21.40;91.00
10802;DHT22;5453;50.852;7.102;2023-08-31T10:38:30;21.30;91.10
10802;DHT22;5453;50.852;7.102;2023-08-31T10:41:18;21.20;91.20
10802;DHT22;5453;50.852;7.102;2023-08-31T10:43:53;21.20;91.20
10802;DHT22;5453;50.852;7.102;2023-08-31T10:46:32;21.10;91.20
10802;DHT22;5453;50.852;7.102;2023-08-31T10:49:14;21.20;91.40
10802;DHT22;5453;50.852;7.102;2023-08-31T10:51:49;21.40;91.50
10802;DHT22;5453;50.852;7.102;2023-08-31T10:54:30;21.70;90.90
10802;DHT22;5453;50.852;7.102;2023-08-31T10:57:05;21.90;90.50
10802;DHT22;5453;50.852;7.102;2023-08-31T10:59:43;21.90;90.00
10802;DHT22;5453;50.852;7.102;2023-08-31T11:02:30;22.00;90.20
10802;DHT22;5453;50.852;7.102;2023-08-31T11:05:10;22.00;90.00
10802;DHT22;5453;50.852;7.102;2023-08-31T11:07:43;22.10;90.70
10802;DHT22;5453;50.852;7.102;2023-08-31T11:10:20;22.20;90.00
10802;DHT22;5453;50.852;7.102;2023-08-31T11:12:55;22.20;90.10
10802;DHT22;5453;50.852;7.102;2023-08-31T11:15:28;22.30;90.60
10802;DHT22;5453;50.852;7.102;2023-08-31T11:18:01;22.40;91.00
10802;DHT22;5453;50.852;7.102;2023-08-31T11:20:34;22.70;91.10
10802;DHT22;5453;50.852;7.102;2023-08-31T11:23:07;22.90;91.00
10802;DHT22;5453;50.852;7.102;2023-08-31T11:25:41;23.20;90.40
10802;DHT22;5453;50.852;7.102;2023-08-31T11:28:14;23.50;90.40
10802;DHT22;5453;50.852;7.102;2023-08-31T11:30:48;23.80;90.40
10802;DHT22;5453;50.852;7.102;2023-08-31T11:33:21;24.00;89.80
10802;DHT22;5453;50.852;7.102;2023-08-31T11:35:54;24.00;88.80
10802;DHT22;5453;50.852;7.102;2023-08-31T11:38:27;24.00;87.70
10802;DHT22;5453;50.852;7.102;2023-08-31T11:41:02;23.90;87.20
10802;DHT22;5453;50.852;7.102;2023-08-31T11:43:37;23.60;87.10
10802;DHT22;5453;50.852;7.102;2023-08-31T11:46:10;23.20;86.40
10802;DHT22;5453;50.852;7.102;2023-08-31T11:48:43;22.80;86.60
10802;DHT22;5453;50.852;7.102;2023-08-31T11:51:15;22.40;88.20
10802;DHT22;5453;50.852;7.102;2023-08-31T11:53:49;22.00;89.00
10802;DHT22;5453;50.852;7.102;2023-08-31T11:56:23;21.60;89.80
10802;DHT22;5453;50.852;7.102;2023-08-31T11:58:56;21.30;91.00
10802;DHT22;5453;50.852;7.102;2023-08-31T12:01:28;21.10;92.70
10802;DHT22;5453;50.852;7.102;2023-08-31T12:04:00;20.70;94.00
10802;DHT22;5453;50.852;7.102;2023-08-31T12:06:33;20.50;95.10
10802;DHT22;5453;50.852;7.102;2023-08-31T12:09:06;20.20;96.00
10802;DHT22;5453;50.852;7.102;2023-08-31T12:11:49;20.00;97.00
10802;DHT22;5453;50.852;7.102;2023-08-31T12:14:23;19.80;98.30
10802;DHT22;5453;50.852;7.102;2023-08-31T12:17:01;19.80;99.70
10802;DHT22;5453;50.852;7.102;2023-08-31T12:19:37;19.70;99.90
10802;DHT22;5453;50.852;7.102;2023-08-31T12:22:10;19.80;99.90
10802;DHT22;5453;50.852;7.102;2023-08-31T12:24:44;19.80;99.90
10802;DHT22;5453;50.852;7.102;2023-08-31T12:27:18;19.80;99.90
10802;DHT22;5453;50.852;7.102;2023-08-31T12:29:50;19.80;99.90
10802;DHT22;5453;50.852;7.102;2023-08-31T12:32:22;19.90;99.90
10802;DHT22;5453;50.852;7.102;2023-08-31T12:34:55;20.00;99.90
10802;DHT22;5453;50.852;7.102;2023-08-31T12:37:27;20.00;99.90
10802;DHT22;5453;50.852;7.102;2023-08-31T12:39:59;20.00;99.90
10802;DHT22;5453;50.852;7.102;2023-08-31T12:42:36;19.90;99.90
10802;DHT22;5453;50.852;7.102;2023-08-31T12:45:09;19.90;99.90
10802;DHT22;5453;50.852;7.102;2023-08-31T12:47:42;19.90;99.90
10802;DHT22;5453;50.852;7.102;2023-08-31T12:50:14;20.00;99.90
10802;DHT22;5453;50.852;7.102;2023-08-31T12:52:47;20.00;99.90
10802;DHT22;5453;50.852;7.102;2023-08-31T12:55:20;20.00;99.90
10802;DHT22;5453;50.852;7.102;2023-08-31T12:57:53;19.90;99.90
10802;DHT22;5453;50.852;7.102;2023-08-31T13:00:26;19.90;99.90
10802;DHT22;5453;50.852;7.102;2023-08-31T13:02:59;19.90;99.90
10802;DHT22;5453;50.852;7.102;2023-08-31T13:05:31;19.80;99.90
10802;DHT22;5453;50.852;7.102;2023-08-31T13:08:05;19.80;99.90
10802;DHT22;5453;50.852;7.102;2023-08-31T13:10:37;19.90;99.90
10802;DHT22;5453;50.852;7.102;2023-08-31T13:13:11;19.90;99.90
10802;DHT22;5453;50.852;7.102;2023-08-31T13:15:47;20.10;99.90
10802;DHT22;5453;50.852;7.102;2023-08-31T13:18:19;20.30;99.90
10802;DHT22;5453;50.852;7.102;2023-08-31T13:20:53;20.50;99.90
10802;DHT22;5453;50.852;7.102;2023-08-31T13:23:25;20.80;99.90
10802;DHT22;5453;50.852;7.102;2023-08-31T13:25:58;21.00;99.90
10802;DHT22;5453;50.852;7.102;2023-08-31T13:28:32;21.20;99.90
10802;DHT22;5453;50.852;7.102;2023-08-31T13:31:04;21.30;99.90
10802;DHT22;5453;50.852;7.102;2023-08-31T13:33:39;21.30;99.90
10802;DHT22;5453;50.852;7.102;2023-08-31T13:36:13;21.20;99.90
10802;DHT22;5453;50.852;7.102;2023-08-31T13:38:45;21.20;99.90
10802;DHT22;5453;50.852;7.102;2023-08-31T13:41:18;21.10;99.90
10802;DHT22;5453;50.852;7.102;2023-08-31T13:43:55;21.10;99.90
10802;DHT22;5453;50.852;7.102;2023-08-31T13:46:27;21.00;99.90
10802;DHT22;5453;50.852;7.102;2023-08-31T13:48:59;21.00;99.90
10802;DHT22;5453;50.852;7.102;2023-08-31T13:51:35;21.00;99.90
10802;DHT22;5453;50.852;7.102;2023-08-31T13:54:08;20.90;99.90
10802;DHT22;5453;50.852;7.102;2023-08-31T13:56:40;20.90;99.90
10802;DHT22;5453;50.852;7.102;2023-08-31T13:59:15;21.00;99.90
10802;DHT22;5453;50.852;7.102;2023-08-31T14:01:50;21.00;99.90
10802;DHT22;5453;50.852;7.102;2023-08-31T14:04:22;20.90;99.90
10802;DHT22;5453;50.852;7.102;2023-08-31T14:06:55;20.90;99.90
10802;DHT22;5453;50.852;7.102;2023-08-31T14:09:27;20.90;99.90
10802;DHT22;5453;50.852;7.102;2023-08-31T14:12:03;20.90;99.90
10802;DHT22;5453;50.852;7.102;2023-08-31T14:14:38;20.80;99.90
10802;DHT22;5453;50.852;7.102;2023-08-31T14:17:11;20.80;99.90
10802;DHT22;5453;50.852;7.102;2023-08-31T14:19:47;20.80;99.90
10802;DHT22;5453;50.852;7.102;2023-08-31T14:22:20;20.80;99.90
10802;DHT22;5453;50.852;7.102;2023-08-31T14:24:53;20.70;99.90
10802;DHT22;5453;50.852;7.102;2023-08-31T14:27:25;20.70;99.90
10802;DHT22;5453;50.852;7.102;2023-08-31T14:30:00;20.70;99.90
10802;DHT22;5453;50.852;7.102;2023-08-31T14:32:32;20.70;99.90
10802;DHT22;5453;50.852;7.102;2023-08-31T14:35:06;20.80;99.90
10802;DHT22;5453;50.852;7.102;2023-08-31T14:37:38;20.80;99.90
10802;DHT22;5453;50.852;7.102;2023-08-31T14:40:11;20.90;99.90
10802;DHT22;5453;50.852;7.102;2023-08-31T14:42:44;20.90;99.90
10802;DHT22;5453;50.852;7.102;2023-08-31T14:45:18;21.00;99.90
10802;DHT22;5453;50.852;7.102;2023-08-31T14:47:50;21.00;99.90
10802;DHT22;5453;50.852;7.102;2023-08-31T14:50:23;21.00;99.90
10802;DHT22;5453;50.852;7.102;2023-08-31T14:52:55;21.00;99.90
10802;DHT22;5453;50.852;7.102;2023-08-31T14:55:27;21.00;99.90
10802;DHT22;5453;50.852;7.102;2023-08-31T14:58:03;21.00;99.80
10802;DHT22;5453;50.852;7.102;2023-08-31T15:00:38;21.10;99.70
10802;DHT22;5453;50.852;7.102;2023-08-31T15:03:10;21.20;99.50
10802;DHT22;5453;50.852;7.102;2023-08-31T15:05:43;21.30;99.10
10802;DHT22;5453;50.852;7.102;2023-08-31T15:08:15;21.30;98.70
10802;DHT22;5453;50.852;7.102;2023-08-31T15:10:47;21.40;98.30
10802;DHT22;5453;50.852;7.102;2023-08-31T15:13:20;21.40;98.00
10802;DHT22;5453;50.852;7.102;2023-08-31T15:15:57;21.50;97.90
10802;DHT22;5453;50.852;7.102;2023-08-31T15:18:30;21.40;97.90
10802;DHT22;5453;50.852;7.102;2023-08-31T15:21:03;21.40;97.60
10802;DHT22;5453;50.852;7.102;2023-08-31T15:23:35;21.40;97.70
10802;DHT22;5453;50.852;7.102;2023-08-31T15:26:10;21.30;97.70
10802;DHT22;5453;50.852;7.102;2023-08-31T15:28:44;21.20;97.70
10802;DHT22;5453;50.852;7.102;2023-08-31T15:31:17;21.10;97.60
10802;DHT22;5453;50.852;7.102;2023-08-31T15:33:50;21.00;97.90
10802;DHT22;5453;50.852;7.102;2023-08-31T15:36:22;21.00;98.10
10802;DHT22;5453;50.852;7.102;2023-08-31T15:38:54;20.90;98.10
10802;DHT22;5453;50.852;7.102;2023-08-31T15:41:27;20.90;97.70
10802;DHT22;5453;50.852;7.102;2023-08-31T15:44:07;20.90;97.40
10802;DHT22;5453;50.852;7.102;2023-08-31T15:46:41;20.90;97.30
10802;DHT22;5453;50.852;7.102;2023-08-31T15:49:13;20.90;97.10
10802;DHT22;5453;50.852;7.102;2023-08-31T15:51:49;20.80;97.00
10802;DHT22;5453;50.852;7.102;2023-08-31T15:54:22;20.90;96.90
10802;DHT22;5453;50.852;7.102;2023-08-31T15:56:54;20.80;96.70
10802;DHT22;5453;50.852;7.102;2023-08-31T15:59:27;20.80;96.80
10802;DHT22;5453;50.852;7.102;2023-08-31T16:02:00;20.80;96.80
10802;DHT22;5453;50.852;7.102;2023-08-31T16:04:34;20.80;96.80
10802;DHT22;5453;50.852;7.102;2023-08-31T16:07:06;20.80;96.90
10802;DHT22;5453;50.852;7.102;2023-08-31T16:09:38;20.80;96.90
10802;DHT22;5453;50.852;7.102;2023-08-31T16:12:11;20.80;96.90
10802;DHT22;5453;50.852;7.102;2023-08-31T16:14:46;20.80;97.10
10802;DHT22;5453;50.852;7.102;2023-08-31T16:17:21;20.80;96.90
10802;DHT22;5453;50.852;7.102;2023-08-31T16:19:53;20.80;97.10
10802;DHT22;5453;50.852;7.102;2023-08-31T16:22:26;20.80;97.10
10802;DHT22;5453;50.852;7.102;2023-08-31T16:24:58;20.80;97.10
10802;DHT22;5453;50.852;7.102;2023-08-31T16:27:31;20.80;97.20